Time;durP1;ratioP1;P1;durP2;ratioP2;P2;SDS_P1;SDS_P2;PMS_P1;PMS_P2;Temp;Humidity;BMP_temperature;BMP_pressure;BME280_temperature;BME280_humidity;BME280_pressure;Samples;Min_cycle;Max_cycle;Signal;HPM_P1;HPM_P2
2023/04/08 00:00:54;;;;;;;61.55;35.63;;;28.20;99.90;;;;;;5072141;28;20016;-70
2023/04/08 00:03:21;;;;;;;89.13;55.22;;;28.10;99.90;;;;;;5063666;28;20021;-70
2023/04/08 00:05:47;;;;;;;38.13;21.52;;;28.10;99.90;;;;;;5068523;28;20044;-70
2023/04/08 00:08:14;;;;;;;69.05;54.17;;;28.20;99.90;;;;;;5073803;28;20024;-70
2023/04/08 00:10:41;;;;;;;92.47;82.05;;;27.80;99.90;;;;;;5073768;28;20100;-70
2023/04/08 00:13:07;;;;;;;68.25;49.42;;;27.70;99.90;;;;;;5073383;28;20021;-70
2023/04/08 00:15:34;;;;;;;45.75;30.38;;;27.60;99.90;;;;;;5073600;28;20035;-70
2023/04/08 00:18:00;;;;;;;34.63;19.67;;;27.90;99.90;;;;;;5073231;28;20021;-70
2023/04/08 00:20:27;;;;;;;30.50;17.25;;;27.70;99.90;;;;;;5073351;28;20020;-70
2023/04/08 00:22:54;;;;;;;51.92;38.78;;;27.90;99.90;;;;;;5073477;28;20058;-70
2023/04/08 00:25:20;;;;;;;66.18;46.85;;;27.90;99.90;;;;;;5073416;28;20031;-70
2023/04/08 00:27:47;;;;;;;74.43;57.03;;;28.00;99.90;;;;;;5072627;28;20104;-70
2023/04/08 00:30:14;;;;;;;62.60;47.92;;;28.20;99.90;;;;;;5064664;28;20103;-69
2023/04/08 00:32:41;;;;;;;46.03;32.42;;;28.20;99.90;;;;;;5053324;28;20017;-72
2023/04/08 00:35:07;;;;;;;29.13;20.08;;;28.10;99.90;;;;;;5053176;28;20017;-69
2023/04/08 00:37:34;;;;;;;35.20;24.23;;;28.30;99.90;;;;;;5080445;28;20051;-68
2023/04/08 00:40:01;;;;;;;45.50;24.88;;;28.20;99.90;;;;;;5086745;28;20414;-69
2023/04/08 00:42:29;;;;;;;37.35;25.13;;;27.90;99.90;;;;;;5072918;28;20033;-72
2023/04/08 00:44:56;;;;;;;39.17;26.63;;;28.20;99.90;;;;;;5073233;28;20025;-70
2023/04/08 00:47:23;;;;;;;46.45;31.73;;;28.20;99.90;;;;;;5073143;28;20021;-70
2023/04/08 00:49:50;;;;;;;51.08;31.55;;;28.30;99.90;;;;;;5072752;28;20052;-69
2023/04/08 00:52:17;;;;;;;45.70;33.42;;;28.50;99.90;;;;;;5073112;28;20036;-69
2023/04/08 00:54:44;;;;;;;55.83;33.95;;;28.50;99.90;;;;;;5073239;28;20021;-69
2023/04/08 00:57:10;;;;;;;57.08;36.33;;;28.50;99.90;;;;;;5072578;28;20029;-70
2023/04/08 01:04:38;;;;;;;101.68;56.90;;;28.10;99.90;;;;;;5091035;27;21003;-70
2023/04/08 01:07:16;;;;;;;82.40;57.70;;;27.90;99.90;;;;;;5090731;28;20020;-70
2023/04/08 01:09:48;;;;;;;109.85;73.60;;;27.90;99.90;;;;;;5090699;28;20071;-68
2023/04/08 01:12:31;;;;;;;93.57;65.63;;;27.80;99.90;;;;;;5090729;28;20020;-69
2023/04/08 01:15:10;;;;;;;76.15;56.50;;;28.10;99.90;;;;;;5090706;28;20024;-70
2023/04/08 01:17:38;;;;;;;343.15;180.00;;;27.90;99.90;;;;;;5090676;28;20029;-69
2023/04/08 01:20:06;;;;;;;281.52;133.77;;;28.10;99.90;;;;;;5090621;28;20032;-69
2023/04/08 01:22:54;;;;;;;136.90;77.97;;;27.80;99.90;;;;;;5090381;28;20260;-69
2023/04/08 01:25:30;;;;;;;330.90;126.10;;;28.00;99.90;;;;;;5090611;28;20042;-69
2023/04/08 01:28:02;;;;;;;244.40;107.45;;;28.10;99.90;;;;;;5086155;28;20029;-69
2023/04/08 01:30:30;;;;;;;184.95;94.07;;;28.20;99.90;;;;;;5075956;28;20021;-70
2023/04/08 01:32:58;;;;;;;522.38;215.00;;;27.90;99.90;;;;;;5089603;28;20035;-69
2023/04/08 01:35:25;;;;;;;303.10;116.65;;;28.20;99.90;;;;;;5070141;28;20385;-70
2023/04/08 01:37:53;;;;;;;136.77;68.13;;;28.10;99.90;;;;;;5069922;28;20024;-68
2023/04/08 01:40:19;;;;;;;277.88;109.25;;;27.90;99.90;;;;;;5069810;28;20100;-69
2023/04/08 01:42:49;;;;;;;125.03;65.55;;;28.00;99.90;;;;;;5078628;28;20043;-70
2023/04/08 01:45:17;;;;;;;68.00;46.70;;;28.00;99.90;;;;;;5069893;28;20482;-69
2023/04/08 01:47:46;;;;;;;105.25;56.53;;;28.30;99.90;;;;;;5069704;28;20032;-69
2023/04/08 01:50:15;;;;;;;94.22;53.80;;;28.20;99.90;;;;;;5069780;28;20402;-69
2023/04/08 01:52:45;;;;;;;62.17;42.95;;;28.30;99.90;;;;;;5069860;28;20025;-68
2023/04/08 01:55:11;;;;;;;66.90;42.60;;;28.50;99.90;;;;;;5069646;28;20021;-72
2023/04/08 01:57:40;;;;;;;57.67;41.20;;;28.20;99.90;;;;;;5069756;28;20028;-66
2023/04/08 02:00:11;;;;;;;68.88;42.72;;;28.30;99.90;;;;;;5069359;28;20048;-70
2023/04/08 02:02:40;;;;;;;53.72;35.08;;;28.70;99.90;;;;;;5069359;28;20063;-71
2023/04/08 02:05:07;;;;;;;44.33;31.48;;;28.50;99.90;;;;;;5067690;28;20035;-71
2023/04/08 02:07:34;;;;;;;50.72;37.03;;;28.70;99.90;;;;;;5068106;28;20020;-70
2023/04/08 02:10:00;;;;;;;63.35;46.55;;;28.40;99.90;;;;;;5067910;28;20025;-70
2023/04/08 02:12:27;;;;;;;33.13;25.13;;;28.30;99.90;;;;;;5068539;28;20027;-69
2023/04/08 02:14:56;;;;;;;56.22;41.97;;;28.60;99.90;;;;;;5059440;28;20029;-69
2023/04/08 02:17:44;;;;;;;86.95;72.30;;;28.70;99.90;;;;;;5055792;28;20049;-69
2023/04/08 02:20:17;;;;;;;63.30;48.97;;;28.70;99.90;;;;;;5055991;28;20020;-70
2023/04/08 02:22:44;;;;;;;38.85;28.45;;;28.80;99.90;;;;;;5047152;28;20025;-72
2023/04/08 02:25:14;;;;;;;40.33;28.95;;;28.60;99.90;;;;;;5036020;28;20022;-70
2023/04/08 02:27:41;;;;;;;24.38;16.25;;;28.60;99.90;;;;;;5035784;28;20021;-70
2023/04/08 02:30:10;;;;;;;19.05;12.77;;;28.60;99.90;;;;;;5035990;28;20025;-71
2023/04/08 02:32:37;;;;;;;15.18;9.32;;;28.70;99.90;;;;;;5035846;28;20155;-70
2023/04/08 02:35:05;;;;;;;17.58;12.50;;;28.50;99.90;;;;;;5044008;28;20540;-70
2023/04/08 02:37:32;;;;;;;24.35;13.60;;;28.70;99.90;;;;;;5050073;28;20448;-71
2023/04/08 02:39:59;;;;;;;17.85;10.25;;;28.80;99.90;;;;;;5045009;28;20024;-73
2023/04/08 02:42:26;;;;;;;19.33;10.68;;;29.00;99.90;;;;;;5046312;28;20041;-68
2023/04/08 02:44:53;;;;;;;17.33;9.88;;;29.00;99.90;;;;;;5046280;28;20009;-67
2023/04/08 02:47:19;;;;;;;18.00;10.98;;;29.10;99.90;;;;;;5044048;28;20036;-68
2023/04/08 02:49:46;;;;;;;10.68;8.27;;;29.10;99.90;;;;;;5045972;28;20027;-70
2023/04/08 02:52:12;;;;;;;10.20;7.30;;;29.20;99.90;;;;;;5055485;28;20108;-72
2023/04/08 02:54:39;;;;;;;13.05;8.52;;;29.20;99.90;;;;;;5055406;28;20553;-71
2023/04/08 02:57:05;;;;;;;15.73;8.73;;;29.30;99.90;;;;;;5055280;28;20026;-71
2023/04/08 02:59:32;;;;;;;13.15;7.88;;;29.30;99.90;;;;;;5055285;28;20025;-71
2023/04/08 03:01:58;;;;;;;11.30;7.68;;;29.40;99.90;;;;;;5054973;28;20482;-70
2023/04/08 03:04:25;;;;;;;18.67;9.07;;;29.50;99.90;;;;;;5055112;28;20044;-70
2023/04/08 03:06:51;;;;;;;12.18;7.00;;;29.50;99.90;;;;;;5054539;28;20070;-69
2023/04/08 03:09:18;;;;;;;16.38;8.18;;;29.60;99.90;;;;;;5051362;28;20056;-73
2023/04/08 03:11:51;;;;;;;13.02;9.25;;;29.60;99.90;;;;;;5053105;28;20013;-69
2023/04/08 03:14:17;;;;;;;14.40;9.20;;;29.70;99.90;;;;;;5052996;28;20029;-73
2023/04/08 03:16:44;;;;;;;12.88;9.25;;;29.70;99.90;;;;;;5053001;28;20014;-71
2023/04/08 03:19:11;;;;;;;14.23;8.30;;;29.80;99.90;;;;;;5052859;28;20017;-71
2023/04/08 03:21:37;;;;;;;13.98;8.40;;;29.70;99.90;;;;;;5053282;28;20029;-72
2023/04/08 03:24:04;;;;;;;12.80;9.80;;;29.70;99.90;;;;;;5059765;28;20466;-73
2023/04/08 03:26:30;;;;;;;22.67;14.65;;;29.70;99.90;;;;;;5065163;28;20118;-73
2023/04/08 03:28:57;;;;;;;69.80;49.90;;;29.70;99.90;;;;;;5054540;28;20017;-75
2023/04/08 03:31:23;;;;;;;23.77;14.88;;;29.70;99.90;;;;;;5054690;28;20013;-72
2023/04/08 03:33:50;;;;;;;27.33;19.10;;;29.70;99.90;;;;;;5054527;28;20025;-73
2023/04/08 03:36:17;;;;;;;23.95;17.45;;;29.80;99.90;;;;;;5054437;28;20104;-76
2023/04/08 03:38:44;;;;;;;28.38;21.33;;;29.90;99.90;;;;;;5054358;28;20025;-75
2023/04/08 03:41:10;;;;;;;16.42;10.52;;;29.80;99.90;;;;;;5054383;28;20025;-73
2023/04/08 03:43:37;;;;;;;16.70;9.63;;;29.90;99.90;;;;;;5055620;28;20071;-76
2023/04/08 03:46:03;;;;;;;10.00;8.25;;;29.80;99.90;;;;;;5074306;28;20027;-75
2023/04/08 03:48:30;;;;;;;14.18;7.68;;;29.80;99.90;;;;;;5074237;28;20017;-73
2023/04/08 03:50:56;;;;;;;12.52;8.63;;;29.80;99.90;;;;;;5074103;28;20050;-71
2023/04/08 03:53:23;;;;;;;12.80;9.48;;;29.80;99.90;;;;;;5074237;28;20044;-72
2023/04/08 03:55:50;;;;;;;13.50;9.20;;;29.80;99.90;;;;;;5074202;28;20035;-73
2023/04/08 03:58:16;;;;;;;11.80;8.07;;;29.80;99.90;;;;;;5073958;28;20044;-72
2023/04/08 04:00:43;;;;;;;7.90;5.45;;;29.80;99.90;;;;;;5058173;28;20056;-72
2023/04/08 04:03:11;;;;;;;7.55;5.72;;;29.80;99.90;;;;;;5053921;28;20127;-73
2023/04/08 04:05:39;;;;;;;10.98;6.70;;;29.80;99.90;;;;;;5053861;28;20020;-73
2023/04/08 04:08:08;;;;;;;9.90;7.00;;;29.80;99.90;;;;;;5054029;28;20041;-73
2023/04/08 04:10:34;;;;;;;9.38;7.20;;;29.90;99.90;;;;;;5062166;28;20016;-73
2023/04/08 04:13:01;;;;;;;12.02;9.27;;;29.80;99.90;;;;;;5053735;28;20512;-72
2023/04/08 04:15:28;;;;;;;13.88;9.75;;;29.90;99.90;;;;;;5057887;28;20119;-69
2023/04/08 04:17:54;;;;;;;38.50;27.92;;;29.90;99.90;;;;;;5055868;28;20036;-70
2023/04/08 04:20:21;;;;;;;30.55;23.92;;;30.00;99.90;;;;;;5053468;28;20035;-70
2023/04/08 04:22:47;;;;;;;26.15;19.65;;;30.00;99.90;;;;;;5053487;28;20512;-70
2023/04/08 04:25:14;;;;;;;12.38;10.85;;;30.10;99.90;;;;;;5055578;28;20025;-71
2023/04/08 04:27:40;;;;;;;15.02;10.05;;;30.10;99.90;;;;;;5053392;28;20021;-70
2023/04/08 04:30:14;;;;;;;15.13;9.75;;;30.10;99.90;;;;;;5046789;28;20478;-72
2023/04/08 04:32:41;;;;;;;13.77;9.07;;;30.20;99.90;;;;;;5041386;28;20029;-69
2023/04/08 04:35:11;;;;;;;12.60;9.93;;;30.20;99.90;;;;;;5040633;28;20402;-70
2023/04/08 04:37:38;;;;;;;52.40;32.30;;;30.20;99.90;;;;;;5045870;28;20118;-69
2023/04/08 04:40:05;;;;;;;43.65;28.70;;;30.20;99.90;;;;;;5037386;28;20024;-69
2023/04/08 04:42:32;;;;;;;40.58;30.90;;;30.20;99.90;;;;;;5036618;28;20079;-70
2023/04/08 04:44:59;;;;;;;12.15;9.70;;;30.30;99.90;;;;;;5036779;28;20017;-70
2023/04/08 04:47:25;;;;;;;10.20;8.13;;;30.30;99.90;;;;;;5044423;28;20013;-71
2023/04/08 04:49:52;;;;;;;12.38;7.85;;;30.40;99.90;;;;;;5048354;28;20025;-70
2023/04/08 04:52:19;;;;;;;12.82;7.68;;;30.30;99.90;;;;;;5044607;28;20116;-71
2023/04/08 04:54:45;;;;;;;57.15;40.58;;;30.40;99.90;;;;;;5041006;28;20013;-71
2023/04/08 04:57:12;;;;;;;52.55;39.30;;;30.50;99.90;;;;;;5042091;28;20106;-71
2023/04/08 04:59:38;;;;;;;62.60;41.97;;;30.50;99.90;;;;;;5042896;28;20471;-71
2023/04/08 05:02:05;;;;;;;50.40;33.50;;;30.60;99.90;;;;;;5040778;28;20466;-71
2023/04/08 05:04:31;;;;;;;17.73;10.82;;;30.70;99.90;;;;;;5041753;28;20104;-72
2023/04/08 05:07:00;;;;;;;17.42;11.25;;;30.70;99.90;;;;;;5043085;28;20026;-71
2023/04/08 05:09:26;;;;;;;10.70;8.38;;;30.80;99.90;;;;;;5041287;28;20096;-73
2023/04/08 05:11:53;;;;;;;14.13;10.13;;;30.80;99.90;;;;;;5041961;28;20021;-73
2023/04/08 05:14:19;;;;;;;11.90;7.72;;;30.80;99.90;;;;;;5042999;28;20518;-72
2023/04/08 05:16:46;;;;;;;18.15;10.82;;;30.80;99.90;;;;;;5041119;28;20075;-71
2023/04/08 05:19:12;;;;;;;91.00;62.95;;;30.80;99.90;;;;;;5050024;28;20024;-71
2023/04/08 05:21:39;;;;;;;88.43;66.63;;;30.90;99.90;;;;;;5046822;28;20101;-71
2023/04/08 05:24:05;;;;;;;80.00;56.67;;;31.00;99.90;;;;;;5040899;28;20113;-70
2023/04/08 05:26:32;;;;;;;10.18;7.68;;;31.10;99.90;;;;;;5042035;28;20021;-73
2023/04/08 05:28:58;;;;;;;9.32;7.00;;;31.00;99.90;;;;;;5042620;28;20491;-71
2023/04/08 05:31:25;;;;;;;8.88;7.10;;;31.00;99.90;;;;;;5040790;28;20026;-68
2023/04/08 05:33:51;;;;;;;8.35;6.07;;;31.00;99.90;;;;;;5041854;28;20087;-70
2023/04/08 05:36:18;;;;;;;9.23;7.45;;;31.00;99.90;;;;;;5042023;28;20033;-72
2023/04/08 05:38:44;;;;;;;12.70;7.03;;;31.10;99.90;;;;;;5040687;28;20025;-69
2023/04/08 05:41:11;;;;;;;7.60;6.10;;;31.00;99.90;;;;;;5045972;28;20437;-70
2023/04/08 05:43:38;;;;;;;7.95;6.25;;;31.10;99.90;;;;;;5045152;28;20029;-68
2023/04/08 05:46:07;;;;;;;10.20;6.75;;;31.10;99.90;;;;;;5037859;28;20482;-68
2023/04/08 05:48:34;;;;;;;7.45;5.78;;;31.10;99.90;;;;;;5039161;28;20078;-68
2023/04/08 05:51:01;;;;;;;6.13;5.45;;;31.10;99.90;;;;;;5036513;28;20030;-67
2023/04/08 05:53:28;;;;;;;10.38;6.40;;;31.20;99.90;;;;;;5041171;28;20105;-71
2023/04/08 05:55:54;;;;;;;10.70;6.30;;;31.30;99.90;;;;;;5049752;28;20606;-67
2023/04/08 05:58:21;;;;;;;8.23;5.88;;;31.40;99.90;;;;;;5056722;28;20363;-71
2023/04/08 06:00:47;;;;;;;8.23;5.40;;;31.40;99.90;;;;;;5056692;28;20021;-71
2023/04/08 06:03:14;;;;;;;7.13;5.68;;;31.40;99.90;;;;;;5044308;28;20070;-72
2023/04/08 06:05:41;;;;;;;20.73;10.68;;;31.50;99.90;;;;;;5045958;28;20147;-71
2023/04/08 06:08:07;;;;;;;7.15;5.28;;;31.50;99.90;;;;;;5044615;28;20028;-73
2023/04/08 06:10:34;;;;;;;6.22;5.30;;;31.50;99.90;;;;;;5044165;28;20046;-68
2023/04/08 06:13:00;;;;;;;8.75;5.80;;;31.60;99.90;;;;;;5055294;28;20105;-68
2023/04/08 06:15:27;;;;;;;11.27;6.15;;;31.60;99.90;;;;;;5046413;28;20029;-68
2023/04/08 06:17:53;;;;;;;11.02;7.03;;;31.60;99.90;;;;;;5044180;28;20021;-68
2023/04/08 06:20:20;;;;;;;13.32;6.03;;;31.60;99.90;;;;;;5044782;28;20106;-68
2023/04/08 06:22:46;;;;;;;6.78;5.50;;;31.70;99.90;;;;;;5045285;28;20036;-67
2023/04/08 06:25:13;;;;;;;22.15;9.35;;;31.70;99.90;;;;;;5054027;28;20032;-68
2023/04/08 06:27:39;;;;;;;12.70;6.90;;;31.80;99.90;;;;;;5054171;28;20017;-68
2023/04/08 06:30:07;;;;;;;18.50;7.68;;;31.70;99.90;;;;;;5055220;28;20104;-68
2023/04/08 06:32:33;;;;;;;18.52;6.68;;;31.70;99.90;;;;;;5055376;28;20017;-69
2023/04/08 06:35:00;;;;;;;22.98;10.05;;;31.70;99.90;;;;;;5055245;28;20116;-68
2023/04/08 06:37:27;;;;;;;10.02;6.03;;;31.80;99.90;;;;;;5055541;28;20029;-68
2023/04/08 06:39:53;;;;;;;13.88;7.72;;;31.80;99.90;;;;;;5055639;28;20104;-68
2023/04/08 06:42:20;;;;;;;11.98;5.75;;;31.80;99.90;;;;;;5055393;28;20362;-68
2023/04/08 06:44:46;;;;;;;5.57;4.75;;;31.90;99.90;;;;;;5055755;28;20116;-69
2023/04/08 06:47:13;;;;;;;7.75;5.38;;;31.90;99.90;;;;;;5055462;28;20056;-69
2023/04/08 06:49:40;;;;;;;8.57;5.60;;;32.00;99.90;;;;;;5055327;28;20025;-69
2023/04/08 06:52:07;;;;;;;8.68;5.20;;;32.00;99.90;;;;;;5055285;28;20363;-68
2023/04/08 06:54:33;;;;;;;14.55;8.20;;;32.00;99.90;;;;;;5055353;28;20523;-68
2023/04/08 06:57:00;;;;;;;13.63;7.25;;;32.00;99.90;;;;;;5055323;28;20112;-67
2023/04/08 06:59:26;;;;;;;8.15;5.72;;;32.00;99.90;;;;;;5055577;28;20028;-67
2023/04/08 07:01:53;;;;;;;8.93;4.60;;;32.10;99.90;;;;;;5054953;28;20044;-67
2023/04/08 07:04:19;;;;;;;7.82;6.03;;;32.20;99.90;;;;;;5054989;28;20032;-67
2023/04/08 07:06:46;;;;;;;7.65;5.10;;;32.20;99.90;;;;;;5054842;28;20021;-68
2023/04/08 07:09:12;;;;;;;7.47;4.93;;;32.20;99.90;;;;;;5055107;28;20021;-67
2023/04/08 07:11:39;;;;;;;8.60;6.10;;;32.30;99.90;;;;;;5055031;28;20500;-68
2023/04/08 07:14:05;;;;;;;8.88;5.70;;;32.30;99.90;;;;;;5054844;28;20037;-68
2023/04/08 07:16:32;;;;;;;6.57;5.00;;;32.40;99.90;;;;;;5054826;28;20064;-68
2023/04/08 07:18:58;;;;;;;5.15;4.65;;;32.30;99.90;;;;;;5054848;28;20024;-68
2023/04/08 07:21:25;;;;;;;8.10;4.85;;;32.30;99.90;;;;;;5054694;28;20029;-68
2023/04/08 07:23:52;;;;;;;9.88;5.35;;;32.30;99.90;;;;;;5054706;28;20029;-68
2023/04/08 07:26:19;;;;;;;9.18;5.57;;;32.30;99.90;;;;;;5054620;28;20100;-68
2023/04/08 07:28:45;;;;;;;8.45;5.10;;;32.20;99.90;;;;;;5054424;28;20027;-69
2023/04/08 07:31:14;;;;;;;7.22;5.72;;;32.30;99.90;;;;;;5054933;28;20040;-68
2023/04/08 07:33:41;;;;;;;9.38;5.80;;;32.40;99.90;;;;;;5055393;28;20397;-68
2023/04/08 07:36:10;;;;;;;9.10;5.55;;;32.50;99.90;;;;;;5058964;28;20044;-67
2023/04/08 07:38:38;;;;;;;11.25;5.90;;;32.50;99.90;;;;;;5054284;28;20029;-67
2023/04/08 07:41:05;;;;;;;10.50;7.28;;;32.60;99.90;;;;;;5054542;28;20029;-69
2023/04/08 07:43:35;;;;;;;6.90;6.20;;;32.70;99.90;;;;;;5054132;28;20022;-69
2023/04/08 07:46:04;;;;;;;7.55;6.55;;;32.70;99.90;;;;;;5054256;28;20025;-68
2023/04/08 07:48:31;;;;;;;7.72;5.97;;;32.70;99.90;;;;;;5054478;28;20052;-68
2023/04/08 07:50:58;;;;;;;8.77;6.63;;;32.70;99.90;;;;;;5053589;28;20028;-67
2023/04/08 07:53:25;;;;;;;9.52;6.65;;;32.70;99.90;;;;;;5053626;28;20067;-68
2023/04/08 07:55:52;;;;;;;9.10;6.53;;;32.60;99.90;;;;;;5052266;28;20029;-69
2023/04/08 07:58:18;;;;;;;97.43;68.70;;;32.50;99.90;;;;;;5051452;28;20116;-68
2023/04/08 08:00:45;;;;;;;22.50;16.90;;;32.60;99.90;;;;;;5053161;28;20500;-69
2023/04/08 08:03:11;;;;;;;10.73;8.80;;;32.70;99.90;;;;;;5053092;28;20555;-69
2023/04/08 08:05:38;;;;;;;23.80;18.98;;;32.70;99.90;;;;;;5053838;28;20108;-69
2023/04/08 08:08:06;;;;;;;29.08;21.02;;;32.80;99.90;;;;;;5053959;28;20021;-68
2023/04/08 08:10:33;;;;;;;17.33;11.35;;;32.90;99.90;;;;;;5052500;28;20021;-67
2023/04/08 08:12:59;;;;;;;18.27;12.85;;;32.90;99.90;;;;;;5051377;28;20090;-68
2023/04/08 08:15:26;;;;;;;14.55;10.30;;;32.90;99.90;;;;;;5052133;28;20028;-68
2023/04/08 08:17:52;;;;;;;24.08;15.45;;;32.90;99.90;;;;;;5052965;28;20112;-67
2023/04/08 08:20:19;;;;;;;60.78;45.90;;;32.80;99.90;;;;;;5052933;28;20025;-68
2023/04/08 08:22:45;;;;;;;24.08;17.75;;;32.80;99.90;;;;;;5052915;28;20481;-68
2023/04/08 08:25:12;;;;;;;21.88;17.83;;;32.90;99.90;;;;;;5053399;28;20500;-69
2023/04/08 08:27:41;;;;;;;39.40;31.60;;;32.90;99.90;;;;;;5053711;28;20419;-69
2023/04/08 08:30:08;;;;;;;14.90;8.15;;;32.90;99.90;;;;;;5053806;28;20432;-68
2023/04/08 08:32:35;;;;;;;11.80;7.90;;;32.90;99.90;;;;;;5053618;28;20119;-68
2023/04/08 08:35:02;;;;;;;28.10;12.43;;;33.00;99.90;;;;;;5053271;28;20029;-68
2023/04/08 08:37:28;;;;;;;35.70;15.57;;;33.00;99.90;;;;;;5053367;28;20156;-68
2023/04/08 08:39:55;;;;;;;15.50;8.10;;;33.10;99.90;;;;;;5053355;28;20025;-68
2023/04/08 08:42:24;;;;;;;15.10;6.38;;;33.10;99.90;;;;;;5053123;28;20025;-69
2023/04/08 08:44:51;;;;;;;10.32;7.03;;;33.10;99.90;;;;;;5053436;28;20029;-69
2023/04/08 08:47:17;;;;;;;12.98;9.82;;;33.00;99.90;;;;;;5053587;28;20461;-69
2023/04/08 08:49:45;;;;;;;15.52;7.80;;;33.00;99.90;;;;;;5053228;28;20470;-68
2023/04/08 08:52:16;;;;;;;9.65;6.88;;;33.10;99.90;;;;;;5053386;28;20024;-68
2023/04/08 08:54:46;;;;;;;12.60;8.18;;;33.10;99.90;;;;;;5053224;28;20025;-68
2023/04/08 08:57:19;;;;;;;8.68;7.50;;;33.10;99.90;;;;;;5053043;28;20021;-68
2023/04/08 08:59:48;;;;;;;11.68;8.27;;;33.20;99.90;;;;;;5053248;28;20025;-68
2023/04/08 09:02:27;;;;;;;11.50;7.43;;;33.20;99.90;;;;;;5052922;28;20037;-68
2023/04/08 09:05:04;;;;;;;13.82;9.07;;;33.10;99.90;;;;;;5053124;28;20025;-68
2023/04/08 09:07:35;;;;;;;11.70;7.95;;;33.10;99.90;;;;;;5052982;28;20443;-68
2023/04/08 09:10:02;;;;;;;13.10;9.90;;;33.10;99.90;;;;;;5053081;28;20043;-68
2023/04/08 09:12:30;;;;;;;13.73;9.68;;;33.10;99.90;;;;;;5051986;28;20082;-67
2023/04/08 09:15:07;;;;;;;11.75;8.45;;;33.00;99.90;;;;;;5053412;28;20390;-67
2023/04/08 09:17:38;;;;;;;17.98;12.13;;;32.90;99.90;;;;;;5053300;28;20104;-67
2023/04/08 09:20:08;;;;;;;84.40;61.40;;;32.90;99.90;;;;;;5053520;28;20155;-66
2023/04/08 09:22:54;;;;;;;41.45;28.38;;;32.90;99.90;;;;;;5053006;28;20539;-66
2023/04/08 09:25:26;;;;;;;24.75;12.50;;;32.90;99.90;;;;;;5055816;28;20021;-66
2023/04/08 09:27:53;;;;;;;18.30;14.32;;;32.90;99.90;;;;;;5057126;28;20496;-66
2023/04/08 09:30:22;;;;;;;12.80;10.23;;;32.90;99.90;;;;;;5057094;28;20037;-67
2023/04/08 09:32:52;;;;;;;25.48;15.05;;;32.90;99.90;;;;;;5057190;28;20095;-67
2023/04/08 09:35:20;;;;;;;20.08;14.98;;;32.90;99.90;;;;;;5056901;28;20381;-66
2023/04/08 09:37:47;;;;;;;31.77;21.20;;;32.90;99.90;;;;;;5056926;28;20025;-67
2023/04/08 09:40:15;;;;;;;49.83;24.85;;;32.90;99.90;;;;;;5056624;28;20050;-68
2023/04/08 09:42:47;;;;;;;25.38;10.30;;;32.80;99.90;;;;;;5056717;28;20063;-67
2023/04/08 09:45:16;;;;;;;13.52;10.50;;;32.70;99.90;;;;;;5056756;28;20071;-66
2023/04/08 09:48:01;;;;;;;24.48;15.35;;;32.70;99.90;;;;;;5056587;28;20025;-66
2023/04/08 09:50:31;;;;;;;26.50;17.85;;;32.70;99.90;;;;;;5056708;28;20096;-66
2023/04/08 09:53:17;;;;;;;21.95;14.98;;;32.80;99.90;;;;;;5056425;28;20025;-66
2023/04/08 09:55:50;;;;;;;21.40;11.90;;;32.80;99.90;;;;;;5056533;28;20036;-66
2023/04/08 09:58:23;;;;;;;14.25;9.02;;;32.80;99.90;;;;;;5056383;28;20025;-66
2023/04/08 10:00:52;;;;;;;12.57;8.90;;;32.80;99.90;;;;;;5056560;28;20468;-66
2023/04/08 10:03:28;;;;;;;10.35;6.80;;;32.80;99.90;;;;;;5056096;28;20076;-67
2023/04/08 10:05:55;;;;;;;11.02;6.82;;;32.70;99.90;;;;;;5055045;28;20385;-66
2023/04/08 10:08:24;;;;;;;9.65;7.07;;;32.70;99.90;;;;;;5056368;28;20408;-65
2023/04/08 10:10:51;;;;;;;21.58;12.13;;;32.70;99.90;;;;;;5056215;28;20036;-67
2023/04/08 10:13:17;;;;;;;32.08;18.83;;;32.70;99.90;;;;;;5056277;28;20342;-66
2023/04/08 10:15:46;;;;;;;25.17;16.27;;;32.70;99.90;;;;;;5056074;28;20083;-66
2023/04/08 10:18:13;;;;;;;43.30;19.35;;;32.70;99.90;;;;;;5050545;28;20033;-69
2023/04/08 10:20:41;;;;;;;29.23;16.35;;;32.70;99.90;;;;;;5050156;28;20051;-66
2023/04/08 10:23:12;;;;;;;23.27;13.48;;;32.70;99.90;;;;;;5044465;28;20059;-67
2023/04/08 10:25:47;;;;;;;31.52;16.10;;;32.60;99.90;;;;;;5045435;28;20032;-68
2023/04/08 10:28:17;;;;;;;22.73;11.48;;;32.60;99.90;;;;;;5042702;28;20505;-66
2023/04/08 10:30:43;;;;;;;23.45;12.73;;;32.50;99.90;;;;;;5045753;28;20096;-67
2023/04/08 10:33:14;;;;;;;23.48;12.95;;;32.40;99.90;;;;;;5043823;28;20083;-66
2023/04/08 10:35:45;;;;;;;33.25;13.90;;;32.30;99.90;;;;;;5050712;28;20057;-64
2023/04/08 10:38:13;;;;;;;30.80;16.10;;;32.20;99.90;;;;;;5053763;28;20033;-66
2023/04/08 10:40:41;;;;;;;30.42;16.30;;;32.20;99.90;;;;;;5045897;28;20036;-67
2023/04/08 10:43:10;;;;;;;31.65;15.70;;;32.20;99.90;;;;;;5042745;28;20091;-68
2023/04/08 10:48:17;;;;;;;28.70;17.55;;;32.20;99.90;;;;;;5053331;28;20039;-66
2023/04/08 10:51:03;;;;;;;33.90;20.75;;;32.20;99.90;;;;;;5045755;28;20058;-67
2023/04/08 10:53:32;;;;;;;46.78;26.67;;;32.20;99.90;;;;;;5045592;28;20049;-65
2023/04/08 10:56:11;;;;;;;44.70;26.80;;;32.20;99.90;;;;;;5047126;28;20112;-67
2023/04/08 10:58:55;;;;;;;30.50;18.67;;;32.20;99.90;;;;;;5046422;28;20095;-68
2023/04/08 11:01:22;;;;;;;30.23;17.70;;;32.20;99.90;;;;;;5051123;28;20024;-68
2023/04/08 11:03:49;;;;;;;47.03;25.00;;;32.10;99.90;;;;;;5048907;28;20045;-68
2023/04/08 11:06:18;;;;;;;30.92;19.08;;;32.10;99.90;;;;;;5039188;28;20021;-67
2023/04/08 11:08:46;;;;;;;25.80;15.90;;;32.00;99.90;;;;;;5038905;28;20032;-68
2023/04/08 11:11:12;;;;;;;30.05;16.63;;;32.00;99.90;;;;;;5064159;28;20033;-69
2023/04/08 11:13:41;;;;;;;30.23;18.80;;;32.00;99.90;;;;;;5067157;28;20050;-69
2023/04/08 11:16:08;;;;;;;110.32;73.00;;;32.00;99.90;;;;;;5055708;28;20063;-70
2023/04/08 11:18:37;;;;;;;124.60;88.25;;;32.00;99.90;;;;;;5054904;28;20032;-69
2023/04/08 11:21:09;;;;;;;100.25;66.35;;;32.00;99.90;;;;;;5054849;28;20091;-69
2023/04/08 11:23:36;;;;;;;75.10;46.97;;;32.00;99.90;;;;;;5054816;28;20029;-68
2023/04/08 11:26:03;;;;;;;125.05;66.13;;;31.90;99.90;;;;;;5053786;28;20513;-65
2023/04/08 11:28:31;;;;;;;125.43;60.95;;;31.90;99.90;;;;;;5055201;28;20043;-68
2023/04/08 11:30:58;;;;;;;84.07;43.55;;;31.90;99.90;;;;;;5053024;28;20029;-68
2023/04/08 11:33:26;;;;;;;93.63;47.45;;;31.80;99.90;;;;;;5035961;28;20514;-69
2023/04/08 11:35:53;;;;;;;73.88;37.95;;;31.80;99.90;;;;;;5044040;28;20092;-68
2023/04/08 11:38:23;;;;;;;45.35;28.70;;;31.80;99.90;;;;;;5050636;28;20021;-67
2023/04/08 11:40:59;;;;;;;51.38;37.17;;;31.70;99.90;;;;;;5053079;28;20041;-68
2023/04/08 11:43:25;;;;;;;25.70;17.05;;;31.70;99.90;;;;;;5044133;28;20037;-68
2023/04/08 11:45:52;;;;;;;27.20;17.52;;;31.70;99.90;;;;;;5048637;28;20053;-68
2023/04/08 11:48:19;;;;;;;38.40;18.35;;;31.70;99.90;;;;;;5045091;28;20428;-67
2023/04/08 11:50:45;;;;;;;28.63;18.00;;;31.60;99.90;;;;;;5039000;28;20025;-67
2023/04/08 11:53:24;;;;;;;32.58;18.63;;;31.60;99.90;;;;;;5034261;28;20021;-68
2023/04/08 11:55:51;;;;;;;32.47;19.10;;;31.50;99.90;;;;;;5034215;28;20064;-67
2023/04/08 11:58:18;;;;;;;32.10;19.67;;;31.50;99.90;;;;;;5033706;28;20108;-69
2023/04/08 12:00:44;;;;;;;88.20;65.68;;;31.50;99.90;;;;;;5034323;28;20105;-69
2023/04/08 12:03:12;;;;;;;43.40;29.48;;;31.50;99.90;;;;;;5034462;28;20405;-69
2023/04/08 12:05:39;;;;;;;75.40;50.03;;;31.50;99.90;;;;;;5034565;28;20060;-69
2023/04/08 12:08:05;;;;;;;66.07;40.38;;;31.40;99.90;;;;;;5033922;28;20378;-68
2023/04/08 12:10:32;;;;;;;130.13;82.25;;;31.40;99.90;;;;;;5034043;28;20033;-68
2023/04/08 12:12:59;;;;;;;127.47;85.63;;;31.20;99.90;;;;;;5033778;28;20033;-68
2023/04/08 12:15:25;;;;;;;66.50;47.20;;;31.20;99.90;;;;;;5034838;28;20021;-69
2023/04/08 12:17:52;;;;;;;40.92;27.48;;;31.30;99.90;;;;;;5034852;28;20021;-69
2023/04/08 12:20:18;;;;;;;55.25;37.05;;;31.20;99.90;;;;;;5034673;28;20036;-69
2023/04/08 12:22:45;;;;;;;64.60;42.30;;;31.10;99.90;;;;;;5034653;28;20025;-69
2023/04/08 12:25:11;;;;;;;92.45;65.45;;;31.10;99.90;;;;;;5034715;28;20413;-68
2023/04/08 12:27:38;;;;;;;113.25;78.63;;;31.20;99.90;;;;;;5034460;28;20104;-68
2023/04/08 12:30:05;;;;;;;51.92;32.30;;;31.20;99.90;;;;;;5034327;28;20064;-68
2023/04/08 12:32:32;;;;;;;36.80;22.45;;;31.20;99.90;;;;;;5034314;28;20117;-69
2023/04/08 12:34:58;;;;;;;38.95;21.00;;;31.00;99.90;;;;;;5034108;28;20033;-70
2023/04/08 12:37:25;;;;;;;33.28;20.23;;;30.90;99.90;;;;;;5034048;28;20021;-69
2023/04/08 12:39:51;;;;;;;33.83;19.65;;;30.90;99.90;;;;;;5034614;28;20025;-69
2023/04/08 12:42:18;;;;;;;43.95;18.45;;;30.90;99.90;;;;;;5034208;28;20030;-69